Time;durP1;ratioP1;P1;durP2;ratioP2;P2;SDS_P1;SDS_P2;PMS_P1;PMS_P2;Temp;Humidity;BMP_temperature;BMP_pressure;BME280_temperature;BME280_humidity;BME280_pressure;Samples;Min_cycle;Max_cycle;Signal;HPM_P1;HPM_P2
2022/05/28 00:00:02;;;;;;;6.10;2.80;;;;;;;12.01;78.09;97768.63;5065010;28;20044;-60
2022/05/28 00:02:30;;;;;;;6.95;2.58;;;;;;;12.01;75.75;97782.19;5065655;28;20359;-61
2022/05/28 00:04:57;;;;;;;11.77;2.95;;;;;;;11.99;80.55;97785.16;5066207;28;20043;-61
2022/05/28 00:07:24;;;;;;;7.72;2.75;;;;;;;11.81;76.99;97783.53;5065602;28;20048;-61
2022/05/28 00:09:50;;;;;;;9.52;3.20;;;;;;;11.87;78.21;97781.72;5065649;28;20081;-61
2022/05/28 00:12:17;;;;;;;8.15;2.63;;;;;;;11.76;79.27;97780.75;5066308;28;20052;-61
2022/05/28 00:14:44;;;;;;;4.22;2.55;;;;;;;11.81;80.82;97778.94;5065688;28;20036;-60
2022/05/28 00:17:10;;;;;;;10.02;3.00;;;;;;;11.70;79.34;97775.28;5065715;28;20049;-60
2022/05/28 00:19:37;;;;;;;10.75;3.60;;;;;;;11.64;80.82;97780.88;5064736;28;20040;-60
2022/05/28 00:22:03;;;;;;;8.10;2.90;;;;;;;11.41;80.05;97783.50;5066078;28;20056;-60
2022/05/28 00:24:30;;;;;;;8.77;3.38;;;;;;;11.23;83.81;97781.88;5062325;28;20048;-61
2022/05/28 00:26:57;;;;;;;18.02;4.30;;;;;;;10.71;86.18;97782.84;5065034;28;20048;-61
2022/05/28 00:29:23;;;;;;;12.95;5.18;;;;;;;10.60;89.57;97789.97;5064971;28;20045;-61
2022/05/28 00:31:50;;;;;;;8.93;3.80;;;;;;;10.37;89.83;97794.38;5064380;28;20051;-61
2022/05/28 00:34:17;;;;;;;12.40;3.90;;;;;;;10.38;90.91;97788.72;5065753;28;20043;-60
2022/05/28 00:36:43;;;;;;;7.88;4.65;;;;;;;10.34;89.61;97787.56;5065551;28;20094;-60
2022/05/28 00:39:10;;;;;;;11.15;3.70;;;;;;;10.59;90.28;97791.88;5064434;28;20055;-61
2022/05/28 00:41:36;;;;;;;8.43;3.30;;;;;;;10.57;87.73;97787.75;5064947;28;20113;-61
2022/05/28 00:44:04;;;;;;;8.57;3.72;;;;;;;10.78;86.32;97786.25;5065495;28;20048;-60
2022/05/28 00:46:31;;;;;;;7.30;3.03;;;;;;;10.89;85.64;97787.25;5064656;28;20048;-60
2022/05/28 00:49:01;;;;;;;7.75;3.38;;;;;;;10.80;86.59;97790.34;5063575;28;20048;-60
2022/05/28 00:51:32;;;;;;;7.35;3.05;;;;;;;10.44;88.67;97789.69;5064883;28;20419;-61
2022/05/28 00:54:04;;;;;;;11.23;3.90;;;;;;;10.31;89.12;97795.34;5065194;28;20102;-60
2022/05/28 00:56:31;;;;;;;8.30;3.65;;;;;;;10.15;89.50;97795.84;5064118;28;20427;-60
2022/05/28 00:59:01;;;;;;;10.48;3.80;;;;;;;10.08;89.85;97791.63;5064555;28;20094;-61
2022/05/28 01:01:31;;;;;;;8.00;3.15;;;;;;;10.18;88.56;97786.44;5064614;28;20672;-61
2022/05/28 01:04:07;;;;;;;11.45;3.78;;;;;;;10.19;81.99;97796.19;5065079;28;20045;-60
2022/05/28 01:06:58;;;;;;;9.10;3.15;;;;;;;10.41;85.95;97787.44;5064509;28;20098;-60
2022/05/28 01:09:37;;;;;;;8.27;3.10;;;;;;;10.41;86.54;97792.84;5066189;28;20044;-60
2022/05/28 01:12:13;;;;;;;7.70;2.25;;;;;;;10.22;77.23;97795.72;5064092;28;20493;-60
2022/05/28 01:14:43;;;;;;;8.93;2.53;;;;;;;10.26;77.34;97788.78;5066161;28;20113;-61
2022/05/28 01:17:16;;;;;;;9.77;2.97;;;;;;;10.27;80.07;97790.41;5064172;28;20028;-60
2022/05/28 01:19:57;;;;;;;7.53;3.05;;;;;;;10.21;84.34;97790.56;5064956;28;20106;-61
2022/05/28 01:22:48;;;;;;;9.85;3.42;;;;;;;10.01;84.44;97789.88;5064632;28;20044;-60
2022/05/28 01:25:41;;;;;;;9.37;3.07;;;;;;;9.84;85.43;97797.88;5058247;28;20094;-61
2022/05/28 01:28:14;;;;;;;7.72;2.75;;;;;;;9.69;84.56;97792.16;5045591;28;20044;-60
2022/05/28 01:30:43;;;;;;;9.65;3.17;;;;;;;9.65;87.52;97793.69;5062443;28;20052;-61
2022/05/28 01:33:12;;;;;;;11.60;3.10;;;;;;;9.39;86.92;97795.78;5064560;28;20040;-60
2022/05/28 01:35:40;;;;;;;9.02;3.30;;;;;;;9.28;88.21;97797.44;5060393;28;20048;-60
2022/05/28 01:38:09;;;;;;;8.77;2.92;;;;;;;9.20;91.01;97794.00;5063924;28;20499;-61
2022/05/28 01:40:36;;;;;;;9.75;3.03;;;;;;;9.02;91.02;97792.19;5064483;28;20040;-60
2022/05/28 01:43:06;;;;;;;11.73;3.47;;;;;;;9.17;90.55;97799.84;5064344;28;20793;-61
2022/05/28 01:45:35;;;;;;;6.00;3.42;;;;;;;9.05;88.92;97799.00;5065986;28;20029;-61
2022/05/28 01:48:05;;;;;;;13.82;4.13;;;;;;;9.02;88.03;97785.97;5069103;28;20077;-61
2022/05/28 01:50:38;;;;;;;12.73;2.88;;;;;;;9.13;86.93;97785.16;5068832;28;20048;-59
2022/05/28 01:53:08;;;;;;;7.80;2.47;;;;;;;8.94;86.66;97792.53;5056906;28;20047;-61
2022/05/28 01:55:39;;;;;;;6.82;2.45;;;;;;;8.83;87.87;97797.69;5070372;28;20037;-60
2022/05/28 01:58:06;;;;;;;9.50;2.70;;;;;;;8.52;89.44;97799.50;5068219;28;20061;-60
2022/05/28 02:00:32;;;;;;;9.20;2.67;;;;;;;8.33;89.88;97798.72;5066051;28;20098;-60
2022/05/28 02:03:01;;;;;;;8.95;2.90;;;;;;;8.42;91.36;97799.22;5068578;28;20060;-60
2022/05/28 02:05:28;;;;;;;4.25;2.25;;;;;;;8.43;89.60;97798.19;5067417;28;20106;-59
2022/05/28 02:07:54;;;;;;;11.80;3.10;;;;;;;8.20;91.80;97789.75;5064971;28;20102;-60
2022/05/28 02:10:22;;;;;;;6.93;2.97;;;;;;;8.11;91.64;97785.69;5068388;28;20056;-60
2022/05/28 02:13:07;;;;;;;9.85;3.05;;;;;;;8.05;91.70;97798.22;5067625;28;20047;-60
2022/05/28 02:15:46;;;;;;;10.02;3.10;;;;;;;8.01;92.31;97788.09;5059530;28;20122;-60
2022/05/28 02:18:24;;;;;;;9.18;3.28;;;;;;;8.02;93.42;97782.50;5067810;28;20044;-60
2022/05/28 02:20:53;;;;;;;7.85;2.60;;;;;;;8.19;89.65;97787.28;5068180;28;20045;-60
2022/05/28 02:23:29;;;;;;;6.45;2.58;;;;;;;8.21;nan;97782.47;5068355;28;20063;-60
2022/05/28 02:26:20;;;;;;;8.70;2.47;;;;;;;8.02;89.29;97785.19;5067732;28;20041;-60
2022/05/28 02:28:48;;;;;;;10.98;2.95;;;;;;;8.18;89.47;97780.22;5067142;28;20090;-60
2022/05/28 02:31:29;;;;;;;9.15;2.75;;;;;;;8.26;89.59;97787.19;5066360;28;20044;-60
2022/05/28 02:33:56;;;;;;;7.93;2.58;;;;;;;8.20;90.59;97778.13;5067544;28;20048;-60
2022/05/28 02:36:23;;;;;;;9.40;2.72;;;;;;;8.12;92.11;97779.28;5067097;28;20059;-60
2022/05/28 02:38:50;;;;;;;8.15;2.20;;;;;;;7.99;92.24;97774.03;5063449;28;20097;-61
2022/05/28 02:41:18;;;;;;;13.90;2.97;;;;;;;7.91;92.88;97777.84;5066659;28;20667;-60
2022/05/28 02:43:45;;;;;;;9.75;2.33;;;;;;;7.79;92.12;97778.59;5066729;28;20044;-60
2022/05/28 02:46:12;;;;;;;10.60;2.60;;;;;;;7.76;92.64;97773.66;5067252;28;20040;-61
2022/05/28 02:48:40;;;;;;;5.82;1.80;;;;;;;7.76;92.94;97767.41;5067050;28;20625;-60
2022/05/28 02:51:14;;;;;;;7.75;2.40;;;;;;;7.73;94.57;97767.88;5066015;28;20102;-60
2022/05/28 02:53:40;;;;;;;8.52;2.47;;;;;;;7.45;93.36;97771.88;5067664;28;20048;-61
2022/05/28 02:56:09;;;;;;;6.95;2.45;;;;;;;7.29;93.93;97764.16;5065612;28;20052;-60
2022/05/28 02:58:36;;;;;;;9.85;2.70;;;;;;;7.18;95.35;97772.13;5066936;28;20075;-60
2022/05/28 03:01:16;;;;;;;11.30;3.22;;;;;;;7.11;95.18;97777.56;5066733;28;20040;-60
2022/05/28 03:03:44;;;;;;;14.05;3.10;;;;;;;7.11;95.14;97778.38;5048428;28;20037;-60
2022/05/28 03:06:10;;;;;;;11.63;2.33;;;;;;;6.81;94.55;97778.19;5058680;28;20079;-60
2022/05/28 03:08:37;;;;;;;8.90;2.50;;;;;;;6.79;95.08;97780.28;5066570;28;20036;-60
2022/05/28 03:11:04;;;;;;;9.63;2.47;;;;;;;6.88;94.76;97777.09;5067872;28;20769;-59
2022/05/28 03:13:30;;;;;;;12.45;2.63;;;;;;;6.84;95.53;97781.28;5066256;28;20040;-60
2022/05/28 03:15:57;;;;;;;11.02;2.75;;;;;;;6.85;94.89;97780.22;5061361;28;20049;-60
2022/05/28 03:18:23;;;;;;;9.63;2.63;;;;;;;6.81;94.63;97773.63;5067375;28;20457;-60
2022/05/28 03:20:50;;;;;;;11.50;3.20;;;;;;;6.96;95.29;97775.19;5065928;28;20040;-59
2022/05/28 03:23:17;;;;;;;11.75;2.40;;;;;;;6.84;95.24;97786.66;5064282;28;20056;-60
2022/05/28 03:25:43;;;;;;;8.27;3.03;;;;;;;6.64;95.15;97781.41;5064012;28;20415;-60
2022/05/28 03:28:10;;;;;;;10.23;2.80;;;;;;;6.48;96.91;97780.88;5061671;28;20040;-60
2022/05/28 03:30:36;;;;;;;6.55;2.67;;;;;;;6.36;96.93;97780.72;5062879;28;20064;-59
2022/05/28 03:33:03;;;;;;;11.95;3.50;;;;;;;6.23;96.15;97778.91;5064128;28;20408;-60
2022/05/28 03:35:29;;;;;;;8.98;3.08;;;;;;;6.43;97.42;97787.91;5063696;28;20507;-60
2022/05/28 03:37:56;;;;;;;13.80;3.13;;;;;;;6.29;94.85;97782.63;5062702;28;20040;-60
2022/05/28 03:40:23;;;;;;;11.80;3.13;;;;;;;6.54;94.90;97773.81;5057967;28;20044;-60
2022/05/28 03:42:49;;;;;;;10.93;2.42;;;;;;;6.37;93.99;97777.00;5053720;28;20044;-60
2022/05/28 03:45:16;;;;;;;5.88;2.50;;;;;;;6.38;93.29;97784.00;5063873;28;20082;-61
2022/05/28 03:47:42;;;;;;;5.32;2.47;;;;;;;6.52;93.26;97789.31;5062643;28;20045;-60
2022/05/28 03:50:09;;;;;;;9.80;2.58;;;;;;;6.40;93.99;97789.19;5064768;28;20106;-60
2022/05/28 03:52:35;;;;;;;12.85;3.22;;;;;;;6.51;93.39;97793.06;5071143;28;20060;-60
2022/05/28 03:55:02;;;;;;;11.48;2.63;;;;;;;6.49;93.14;97793.28;5072025;28;20048;-61
2022/05/28 03:57:32;;;;;;;7.15;2.38;;;;;;;6.62;92.48;97792.38;5064896;28;20064;-60
2022/05/28 04:00:00;;;;;;;9.35;2.67;;;;;;;6.60;92.95;97799.84;5066130;28;20040;-60
2022/05/28 04:02:27;;;;;;;14.05;2.92;;;;;;;6.49;92.52;97805.91;5064669;28;20043;-60
2022/05/28 04:04:54;;;;;;;9.43;2.80;;;;;;;6.37;93.41;97795.81;5066065;28;20040;-60
2022/05/28 04:07:21;;;;;;;7.85;2.10;;;;;;;6.20;93.59;97797.34;5066102;28;20051;-60
2022/05/28 04:09:48;;;;;;;8.05;2.42;;;;;;;6.22;94.20;97795.25;5065727;28;20045;-60
2022/05/28 04:12:14;;;;;;;7.60;2.97;;;;;;;6.25;93.47;97797.53;5065876;28;20059;-61
2022/05/28 04:14:41;;;;;;;5.13;2.30;;;;;;;6.31;94.20;97807.44;5065808;28;20579;-60
2022/05/28 04:17:08;;;;;;;7.65;2.92;;;;;;;6.35;93.17;97802.44;5065898;28;20028;-60
2022/05/28 04:19:39;;;;;;;7.93;2.78;;;;;;;6.37;92.45;97800.34;5061002;28;20072;-60
2022/05/28 04:22:06;;;;;;;7.32;2.42;;;;;;;6.48;92.70;97813.16;5064072;28;20051;-60
2022/05/28 04:24:33;;;;;;;6.30;2.70;;;;;;;6.47;92.34;97803.44;5074506;28;20063;-60
2022/05/28 04:26:59;;;;;;;9.13;2.65;;;;;;;6.44;91.89;97809.22;5061861;28;20055;-60
2022/05/28 04:29:26;;;;;;;7.47;2.33;;;;;;;6.39;93.50;97814.44;5063138;28;20032;-60
2022/05/28 04:31:52;;;;;;;8.30;2.75;;;;;;;6.36;92.78;97812.16;5062230;28;20045;-60
2022/05/28 04:34:19;;;;;;;8.38;1.85;;;;;;;6.46;93.69;97812.56;5062412;28;20044;-61
2022/05/28 04:36:45;;;;;;;10.77;2.55;;;;;;;6.48;92.21;97815.00;5065756;28;20044;-60
2022/05/28 04:39:12;;;;;;;6.15;2.75;;;;;;;6.58;92.74;97818.06;5059745;28;20040;-60
2022/05/28 04:41:38;;;;;;;7.35;3.08;;;;;;;6.85;92.65;97817.06;5062443;28;20044;-60
2022/05/28 04:44:05;;;;;;;8.25;2.63;;;;;;;7.17;90.30;97817.06;5061075;28;20098;-60
2022/05/28 04:46:32;;;;;;;6.55;2.53;;;;;;;7.56;88.87;97822.38;5062695;28;20498;-60
2022/05/28 04:48:59;;;;;;;8.75;2.47;;;;;;;7.95;85.63;97819.47;5057999;28;20037;-61
2022/05/28 04:51:25;;;;;;;5.88;2.65;;;;;;;8.03;84.74;97821.88;5060866;28;20067;-60
2022/05/28 04:53:52;;;;;;;11.73;2.13;;;;;;;8.07;84.63;97827.66;5063010;28;20052;-60
2022/05/28 04:56:18;;;;;;;11.27;2.65;;;;;;;8.10;84.16;97827.19;5061971;28;20063;-60
2022/05/28 04:58:46;;;;;;;7.78;2.20;;;;;;;8.30;82.40;97837.75;5057359;28;20041;-60
2022/05/28 05:01:14;;;;;;;10.07;3.08;;;;;;;8.43;83.91;97833.25;5058619;28;20077;-59
2022/05/28 05:03:41;;;;;;;7.07;2.63;;;;;;;8.38;81.95;97828.56;5058119;28;20040;-60
2022/05/28 05:06:08;;;;;;;5.70;1.77;;;;;;;8.30;81.60;97826.16;5065586;28;20040;-60
2022/05/28 05:08:41;;;;;;;8.55;2.13;;;;;;;8.30;79.13;97831.56;5056737;28;20060;-59
2022/05/28 05:11:08;;;;;;;6.85;2.05;;;;;;;8.48;82.01;97830.72;5059206;28;20052;-59
2022/05/28 05:13:34;;;;;;;5.28;1.75;;;;;;;8.75;80.56;97832.25;5068232;28;20051;-60
2022/05/28 05:16:06;;;;;;;7.90;2.05;;;;;;;8.93;79.22;97829.53;5071234;28;20043;-59
2022/05/28 05:18:33;;;;;;;9.05;2.03;;;;;;;8.79;79.11;97828.88;5071430;28;20416;-60
2022/05/28 05:21:00;;;;;;;9.48;1.98;;;;;;;8.90;78.57;97840.78;5068803;28;20032;-60
2022/05/28 05:23:26;;;;;;;6.68;2.10;;;;;;;8.84;75.57;97849.78;5064552;28;20045;-60
2022/05/28 05:25:53;;;;;;;7.68;1.67;;;;;;;9.09;75.54;97843.41;5068247;28;20048;-60
2022/05/28 05:28:19;;;;;;;10.38;1.90;;;;;;;9.09;75.51;97840.72;5067967;28;20718;-60
2022/05/28 05:30:46;;;;;;;4.78;1.90;;;;;;;9.25;75.56;97839.22;5065510;28;20044;-60
2022/05/28 05:33:12;;;;;;;9.93;1.90;;;;;;;9.39;75.48;97836.34;5068944;28;20037;-60
2022/05/28 05:35:39;;;;;;;9.18;1.95;;;;;;;9.41;76.36;97835.03;5067153;28;20041;-60
2022/05/28 05:38:07;;;;;;;10.30;2.13;;;;;;;9.33;72.92;97819.97;5070794;28;20040;-60
2022/05/28 05:40:37;;;;;;;7.18;1.77;;;;;;;9.47;73.80;97838.69;5071359;28;20094;-59
2022/05/28 05:43:04;;;;;;;5.50;1.65;;;;;;;9.41;72.05;97835.03;5069586;28;20048;-61
2022/05/28 05:45:31;;;;;;;9.57;1.50;;;;;;;9.39;71.61;97837.13;5069401;28;20044;-60
2022/05/28 05:47:58;;;;;;;7.10;1.45;;;;;;;9.57;72.46;97838.09;5069778;28;20058;-61
2022/05/28 05:50:25;;;;;;;9.75;1.70;;;;;;;9.50;71.78;97836.34;5069984;28;20075;-60
2022/05/28 05:52:51;;;;;;;5.30;1.40;;;;;;;9.54;70.07;97844.00;5070259;28;20116;-59
2022/05/28 05:55:18;;;;;;;5.90;1.75;;;;;;;9.48;69.34;97851.94;5070950;28;20109;-60
2022/05/28 05:57:44;;;;;;;10.70;1.73;;;;;;;9.74;70.87;97847.16;5070421;28;20044;-60
2022/05/28 06:00:11;;;;;;;11.07;1.80;;;;;;;9.72;69.70;97843.88;5071082;28;20558;-60
2022/05/28 06:02:38;;;;;;;5.10;1.67;;;;;;;9.90;69.12;97852.94;5065475;28;20040;-60
2022/05/28 06:05:05;;;;;;;4.13;1.30;;;;;;;10.04;69.67;97848.09;5064944;28;20052;-60
2022/05/28 06:07:32;;;;;;;5.30;1.23;;;;;;;10.15;69.25;97849.94;5066294;28;20036;-60
2022/05/28 06:09:58;;;;;;;6.05;1.80;;;;;;;10.22;66.75;97847.16;5063567;28;20037;-61
2022/05/28 06:12:25;;;;;;;10.07;1.50;;;;;;;10.19;68.25;97849.47;5059682;28;20059;-59
2022/05/28 06:14:51;;;;;;;3.90;1.02;;;;;;;10.32;67.10;97841.09;5059605;28;20117;-60
2022/05/28 06:17:18;;;;;;;5.65;1.30;;;;;;;10.30;67.66;97850.53;5059980;28;20048;-60
2022/05/28 06:19:51;;;;;;;10.05;1.73;;;;;;;10.30;69.93;97855.94;5061110;28;20511;-60
2022/05/28 06:22:17;;;;;;;3.53;1.02;;;;;;;10.16;66.36;97848.09;5064324;28;20077;-59
2022/05/28 06:24:44;;;;;;;8.73;1.60;;;;;;;10.22;65.47;97846.31;5062362;28;20040;-60
2022/05/28 06:27:13;;;;;;;6.65;1.08;;;;;;;10.20;64.28;97851.13;5061537;28;20067;-61
2022/05/28 06:29:40;;;;;;;9.23;1.50;;;;;;;10.35;65.16;97850.63;5060697;28;20040;-60
2022/05/28 06:32:07;;;;;;;6.50;1.92;;;;;;;10.09;64.50;97853.63;5064321;28;20044;-60
2022/05/28 06:34:34;;;;;;;4.10;1.20;;;;;;;10.31;64.12;97853.00;5064779;28;20080;-60
2022/05/28 06:37:01;;;;;;;6.43;1.20;;;;;;;10.31;63.02;97855.72;5063611;28;20061;-60
2022/05/28 06:39:28;;;;;;;4.05;0.88;;;;;;;10.46;64.74;97857.94;5064252;28;20045;-61
2022/05/28 06:41:54;;;;;;;5.97;1.10;;;;;;;10.63;65.00;97857.19;5064035;28;20464;-60
2022/05/28 06:44:21;;;;;;;7.00;1.50;;;;;;;10.80;63.50;97852.66;5066082;28;20052;-60
2022/05/28 06:46:47;;;;;;;3.67;1.27;;;;;;;10.85;62.47;97864.66;5068346;28;20147;-61
2022/05/28 06:49:14;;;;;;;3.08;0.88;;;;;;;10.88;63.05;97861.47;5057874;28;20049;-59
2022/05/28 06:51:41;;;;;;;8.30;1.67;;;;;;;10.90;60.39;97862.88;5065329;28;20053;-61
2022/05/28 06:54:07;;;;;;;5.65;1.20;;;;;;;10.97;60.78;97860.00;5064692;28;20036;-60
2022/05/28 06:56:34;;;;;;;5.55;1.02;;;;;;;11.09;60.65;97861.84;5064295;28;20055;-61
2022/05/28 06:59:01;;;;;;;8.82;1.95;;;;;;;11.02;61.34;97862.81;5065093;28;20446;-60
2022/05/28 07:01:34;;;;;;;3.53;0.70;;;;;;;11.17;60.32;97864.16;5064454;28;20051;-60
2022/05/28 07:04:01;;;;;;;10.65;1.25;;;;;;;11.18;60.04;97863.91;5071182;28;20052;-60
2022/05/28 07:06:29;;;;;;;2.15;0.70;;;;;;;11.16;60.57;97857.91;5064630;28;20044;-61
2022/05/28 07:08:55;;;;;;;4.50;1.08;;;;;;;11.18;59.09;97855.78;5064404;28;20408;-60
2022/05/28 07:11:22;;;;;;;7.43;1.30;;;;;;;11.01;58.35;97857.63;5063055;28;20036;-60
2022/05/28 07:13:48;;;;;;;7.20;1.10;;;;;;;11.06;59.19;97849.63;5064923;28;20048;-60
2022/05/28 07:16:15;;;;;;;6.00;1.05;;;;;;;11.05;58.46;97850.66;5062740;28;20045;-60
2022/05/28 07:18:42;;;;;;;5.70;1.27;;;;;;;11.28;59.49;97851.63;5063760;28;20464;-60
2022/05/28 07:21:11;;;;;;;6.05;1.52;;;;;;;11.19;58.94;97851.19;5063827;28;20780;-60
2022/05/28 07:23:37;;;;;;;4.15;1.10;;;;;;;11.40;56.56;97840.69;5063074;28;20048;-60
2022/05/28 07:26:10;;;;;;;3.85;0.75;;;;;;;11.48;55.12;97840.28;5064027;28;20105;-60
2022/05/28 07:28:39;;;;;;;6.85;1.45;;;;;;;11.48;55.54;97842.16;5059918;28;20032;-59
2022/05/28 07:31:15;;;;;;;2.70;0.90;;;;;;;11.60;56.46;97834.78;5068830;28;20048;-60
2022/05/28 07:33:44;;;;;;;6.03;1.35;;;;;;;11.67;56.95;97840.84;5071566;28;20122;-60
2022/05/28 07:36:13;;;;;;;4.05;1.10;;;;;;;11.60;58.07;97836.69;5070106;28;20131;-60
2022/05/28 07:38:42;;;;;;;2.63;1.02;;;;;;;11.65;57.38;97834.03;5062521;28;20051;-61
2022/05/28 07:41:12;;;;;;;4.18;0.90;;;;;;;11.36;55.99;97836.84;5064167;28;20040;-60
2022/05/28 07:43:40;;;;;;;7.78;1.17;;;;;;;11.54;57.83;97831.16;5065213;28;20040;-61
2022/05/28 07:46:19;;;;;;;6.53;1.23;;;;;;;11.84;57.46;97834.59;5076421;28;20044;-60
2022/05/28 07:48:46;;;;;;;4.68;1.13;;;;;;;11.94;53.50;97828.50;5068597;28;20445;-62
2022/05/28 07:51:14;;;;;;;3.40;1.40;;;;;;;12.13;55.34;97830.94;5067387;28;20056;-60
2022/05/28 07:53:41;;;;;;;5.38;0.90;;;;;;;12.46;55.46;97823.78;5070050;28;20041;-61
2022/05/28 07:56:08;;;;;;;5.30;1.25;;;;;;;12.43;55.39;97816.13;5067286;28;20785;-61
2022/05/28 07:58:36;;;;;;;3.90;0.95;;;;;;;12.59;53.71;97820.66;5054807;28;20474;-61
2022/05/28 08:01:04;;;;;;;5.35;0.98;;;;;;;12.51;50.97;97815.69;5062674;28;20407;-60
2022/05/28 08:03:31;;;;;;;6.55;0.85;;;;;;;12.09;52.54;97817.06;5064084;28;20058;-61
2022/05/28 08:05:58;;;;;;;4.07;0.70;;;;;;;12.02;53.21;97817.19;5062260;28;20047;-61
2022/05/28 08:08:27;;;;;;;3.25;0.60;;;;;;;12.08;52.73;97810.81;5063363;28;20048;-60
2022/05/28 08:10:53;;;;;;;5.15;0.90;;;;;;;12.36;54.00;97808.97;5066029;28;20052;-60
2022/05/28 08:13:23;;;;;;;7.00;1.00;;;;;;;12.68;54.29;97820.22;5065919;28;20553;-60
2022/05/28 08:15:51;;;;;;;9.35;1.48;;;;;;;11.86;53.20;97821.59;5062524;28;20145;-60
2022/05/28 08:18:23;;;;;;;5.17;0.93;;;;;;;11.99;53.12;97820.44;5061029;28;20045;-60
2022/05/28 08:23:38;;;;;;;6.40;0.95;;;;;;;12.59;52.35;97815.25;5062224;28;20044;-60
2022/05/28 08:26:05;;;;;;;3.70;0.80;;;;;;;12.97;52.76;97817.28;5057402;28;20052;-61
2022/05/28 08:28:31;;;;;;;3.22;0.88;;;;;;;13.09;50.98;97815.19;5066537;28;20048;-61
2022/05/28 08:30:58;;;;;;;3.08;0.93;;;;;;;12.97;51.25;97811.84;5067304;28;20045;-60
2022/05/28 08:33:25;;;;;;;4.90;1.33;;;;;;;12.88;51.68;97815.00;5059685;28;20044;-61
2022/05/28 08:35:51;;;;;;;3.78;0.85;;;;;;;12.98;51.15;97808.84;5063562;28;20044;-60
2022/05/28 08:38:21;;;;;;;7.13;2.05;;;;;;;12.96;50.92;97805.56;5061595;28;20051;-61
2022/05/28 08:41:04;;;;;;;4.00;0.85;;;;;;;13.08;50.80;97812.75;5073678;28;20048;-60
2022/05/28 08:43:34;;;;;;;4.35;0.73;;;;;;;13.23;50.87;97796.56;5070345;28;20047;-60
2022/05/28 08:46:02;;;;;;;6.03;1.13;;;;;;;13.57;50.43;97800.94;5063351;28;20719;-61
2022/05/28 08:48:42;;;;;;;6.40;1.40;;;;;;;13.43;51.84;97789.66;5061180;28;20086;-61
2022/05/28 08:51:15;;;;;;;9.32;1.08;;;;;;;13.65;50.95;97796.91;5053519;28;20046;-61
2022/05/28 08:54:00;;;;;;;4.80;0.68;;;;;;;13.65;50.73;97796.91;5062317;28;20743;-60
2022/05/28 08:56:28;;;;;;;3.08;0.95;;;;;;;13.42;51.94;97793.47;5063813;28;20519;-60
2022/05/28 08:59:06;;;;;;;5.45;1.00;;;;;;;13.34;49.92;97793.94;5055431;28;20044;-59
2022/05/28 09:01:37;;;;;;;3.90;0.90;;;;;;;13.59;50.29;97781.63;5058138;28;20040;-59
2022/05/28 09:04:10;;;;;;;5.78;0.80;;;;;;;14.03;48.22;97780.53;5062533;28;20048;-64
2022/05/28 09:06:41;;;;;;;2.97;0.80;;;;;;;14.50;48.66;97783.44;5061151;28;20040;-64
2022/05/28 09:09:14;;;;;;;3.85;0.85;;;;;;;14.37;48.25;97782.06;5061572;28;20048;-63
2022/05/28 09:12:05;;;;;;;2.45;0.88;;;;;;;14.18;48.97;97785.22;5048221;28;20321;-61
2022/05/28 09:14:37;;;;;;;;;;;;;;;14.09;48.32;97784.94;5060669;28;20079;-62
2022/05/28 09:17:11;;;;;;;3.20;0.80;;;;;;;14.11;48.06;97790.13;5061138;28;19928;-59
2022/05/28 09:19:42;;;;;;;3.15;0.75;;;;;;;14.24;48.25;97786.06;5067988;28;20311;-59
2022/05/28 09:22:08;;;;;;;3.28;0.98;;;;;;;14.59;48.09;97776.38;5062047;28;20047;-60
2022/05/28 09:24:36;;;;;;;2.17;0.65;;;;;;;14.47;47.77;97779.34;5062643;28;20594;-61
2022/05/28 09:27:34;;;;;;;5.78;1.25;;;;;;;14.60;47.42;97786.22;5062302;28;20048;-61
2022/05/28 09:30:01;;;;;;;2.65;0.88;;;;;;;14.27;48.33;97783.63;5055646;28;20048;-61
2022/05/28 09:33:05;;;;;;;3.00;0.82;;;;;;;14.23;49.14;97781.72;5062981;28;20044;-62
2022/05/28 09:36:00;;;;;;;6.32;1.10;;;;;;;14.67;47.73;97781.31;5049647;28;20037;-62
2022/05/28 09:38:54;;;;;;;3.65;0.70;;;;;;;14.45;49.34;97778.81;5060595;28;20179;-63
2022/05/28 09:41:31;;;;;;;4.88;1.00;;;;;;;13.94;47.59;97779.38;5064638;28;20052;-61
2022/05/28 09:44:14;;;;;;;5.50;0.93;;;;;;;14.31;48.20;97775.75;5065494;28;20492;-62
2022/05/28 09:46:43;;;;;;;3.60;1.08;;;;;;;14.55;46.85;97778.84;5062154;28;20503;-61
2022/05/28 09:49:21;;;;;;;4.70;1.00;;;;;;;14.73;45.39;97763.06;5062538;28;20040;-63
2022/05/28 09:51:53;;;;;;;3.83;0.88;;;;;;;15.10;46.18;97776.78;5057488;28;20041;-65
2022/05/28 09:54:27;;;;;;;4.80;0.85;;;;;;;15.04;44.85;97757.69;5062154;28;20044;-64
2022/05/28 09:57:17;;;;;;;3.75;0.98;;;;;;;15.33;44.88;97754.41;5060690;28;20059;-63
2022/05/28 09:59:43;;;;;;;5.38;1.13;;;;;;;15.58;45.32;97758.22;5061528;28;20053;-60
2022/05/28 10:02:16;;;;;;;5.25;1.00;;;;;;;15.63;45.07;97756.56;5056300;28;20055;-61
2022/05/28 10:04:48;;;;;;;4.97;0.95;;;;;;;15.12;45.50;97747.31;5054067;28;20584;-64
2022/05/28 10:07:27;;;;;;;4.78;1.05;;;;;;;15.20;44.17;97758.53;5059728;28;20045;-65
2022/05/28 10:09:53;;;;;;;4.70;0.98;;;;;;;15.05;43.89;97758.50;5064832;28;20055;-63
2022/05/28 10:12:31;;;;;;;6.03;1.17;;;;;;;15.48;43.72;97761.75;5061028;28;20552;-62
2022/05/28 10:14:59;;;;;;;6.53;1.10;;;;;;;15.38;46.11;97755.50;5078664;28;20055;-63
2022/05/28 10:17:26;;;;;;;7.43;1.02;;;;;;;15.54;46.60;97762.59;5064938;28;20473;-62
2022/05/28 10:19:57;;;;;;;4.65;1.05;;;;;;;15.34;46.45;97758.75;5063480;28;20032;-61
2022/05/28 10:22:26;;;;;;;3.33;0.80;;;;;;;15.53;46.11;97757.38;5063502;28;20056;-62
2022/05/28 10:25:23;;;;;;;5.30;1.15;;;;;;;15.36;46.77;97758.50;5066492;28;20036;-61
2022/05/28 10:27:52;;;;;;;4.70;1.00;;;;;;;15.39;46.16;97763.41;5065850;28;20044;-61
2022/05/28 10:30:31;;;;;;;5.47;1.00;;;;;;;15.65;45.95;97766.13;5064278;28;20033;-65
2022/05/28 10:33:03;;;;;;;5.57;1.42;;;;;;;14.95;47.64;97759.31;5064545;28;20673;-62
2022/05/28 10:35:31;;;;;;;5.53;0.82;;;;;;;14.76;46.77;97750.81;5055579;28;20044;-63
2022/05/28 10:38:09;;;;;;;3.63;0.80;;;;;;;15.40;45.19;97747.88;5066528;28;20041;-62
2022/05/28 10:40:49;;;;;;;5.28;1.27;;;;;;;15.39;44.13;97752.50;5061124;28;20040;-63
2022/05/28 10:43:24;;;;;;;4.80;1.17;;;;;;;15.78;40.68;97748.34;5064692;28;20045;-63
2022/05/28 10:45:59;;;;;;;4.82;0.90;;;;;;;15.59;41.91;97750.84;5068238;28;20067;-63
2022/05/28 10:49:03;;;;;;;3.83;1.00;;;;;;;15.32;43.42;97741.03;5065584;28;20045;-62
2022/05/28 10:51:39;;;;;;;6.60;2.10;;;;;;;15.94;42.16;97740.09;5064083;28;20033;-62
2022/05/28 10:54:18;;;;;;;5.68;1.10;;;;;;;15.98;39.01;97735.75;5076924;28;20792;-62
2022/05/28 10:56:52;;;;;;;2.80;0.75;;;;;;;15.68;41.29;97731.97;5064705;28;20048;-62
2022/05/28 10:59:37;;;;;;;4.88;1.00;;;;;;;15.84;41.38;97730.03;5062810;28;20774;-62
2022/05/28 11:02:35;;;;;;;5.72;1.10;;;;;;;15.88;41.69;97736.56;5064779;28;20049;-63
2022/05/28 11:05:12;;;;;;;6.20;0.90;;;;;;;15.95;41.83;97728.94;5054027;28;20041;-63
2022/05/28 11:07:51;;;;;;;5.05;1.02;;;;;;;16.16;42.03;97726.13;5069444;28;20036;-62
2022/05/28 11:10:54;;;;;;;4.38;1.33;;;;;;;16.15;42.27;97724.50;5066773;28;20040;-63
2022/05/28 11:14:05;;;;;;;4.65;0.82;;;;;;;16.18;41.28;97723.91;5066604;28;20044;-63
2022/05/28 11:16:53;;;;;;;4.50;1.00;;;;;;;16.43;41.50;97718.63;5065092;28;20581;-63
2022/05/28 11:19:33;;;;;;;5.45;1.30;;;;;;;16.60;41.23;97712.78;5058444;28;20466;-62
2022/05/28 11:22:26;;;;;;;5.22;1.20;;;;;;;16.16;41.14;97717.09;5064811;28;20048;-62
2022/05/28 11:25:04;;;;;;;4.50;1.05;;;;;;;16.36;41.18;97710.72;5066698;28;20052;-62
2022/05/28 11:27:52;;;;;;;4.93;1.20;;;;;;;16.06;40.44;97704.31;5063514;28;20044;-64
2022/05/28 11:30:45;;;;;;;7.32;3.50;;;;;;;16.23;40.41;97688.41;5059044;28;20044;-63
2022/05/28 11:33:18;;;;;;;8.70;2.00;;;;;;;16.01;40.43;97693.41;5057452;28;20127;-62
2022/05/28 11:35:55;;;;;;;8.48;2.58;;;;;;;16.32;40.20;97690.50;5063298;28;20429;-62
2022/05/28 11:38:32;;;;;;;4.78;1.77;;;;;;;16.62;41.92;97685.97;5050576;28;20466;-63
2022/05/28 11:41:04;;;;;;;4.28;1.00;;;;;;;17.23;38.54;97689.34;5062588;28;20047;-63
2022/05/28 11:43:40;;;;;;;4.68;1.25;;;;;;;17.28;37.90;97688.47;5069123;28;20048;-64
2022/05/28 11:46:30;;;;;;;10.10;3.00;;;;;;;17.58;39.11;97681.03;5063666;28;20060;-64
2022/05/28 11:52:22;;;;;;;8.27;2.80;;;;;;;17.08;38.17;97660.22;5061011;28;20048;-62
2022/05/28 11:54:56;;;;;;;8.45;3.22;;;;;;;17.78;37.17;97663.59;5063208;28;20064;-62
2022/05/28 11:57:29;;;;;;;2.85;0.93;;;;;;;18.20;35.26;97663.06;5054759;28;20739;-63
2022/05/28 11:59:57;;;;;;;4.30;0.90;;;;;;;18.22;35.65;97654.56;5062956;28;20036;-63